AFR4223 LFPG-EGKK
Flight info
| Callsign | AFR4223 |
|---|---|
| Flight time | 0h 42m |
| Altitude | 24000 |
| Route | OPALE DCT KESAX DCT KUNAV |
| Aircraft | BCS3/M-SBDE2E3GIRWXY/LB1 |
Departure
| Time | 2026-05-07 10:39 |
|---|---|
| Airport | Charles de Gaulle International Airport (LFPG) |
Arrival
| Time | 2026-05-07 11:21 |
|---|---|
| Airport | London Gatwick Airport (EGKK) |
| Time | Latitude | Longitude | Altitude | Speed | Heading |
|---|---|---|---|---|---|
| 2026-05-07 10:18 | 49.01438 | 2.53754 | 355 ft | 0 kts | 121° |
| 2026-05-07 10:29 | 49.01444 | 2.53738 | 364 ft | 4 kts | 121° |
| 2026-05-07 10:29 | 49.01458 | 2.53703 | 361 ft | 4 kts | 121° |
| 2026-05-07 10:30 | 49.01485 | 2.53642 | 356 ft | 4 kts | 139° |
| 2026-05-07 10:30 | 49.01507 | 2.53622 | 359 ft | 4 kts | 170° |
| 2026-05-07 10:30 | 49.01530 | 2.53623 | 359 ft | 4 kts | 194° |
| 2026-05-07 10:30 | 49.01549 | 2.53631 | 362 ft | 0 kts | 195° |
| 2026-05-07 10:32 | 49.01540 | 2.53642 | 362 ft | 7 kts | 138° |
| 2026-05-07 10:32 | 49.01544 | 2.53671 | 362 ft | 1 kts | 19° |
| 2026-05-07 10:33 | 49.01582 | 2.53658 | 357 ft | 12 kts | 2° |
| 2026-05-07 10:33 | 49.01659 | 2.53712 | 361 ft | 13 kts | 35° |
| 2026-05-07 10:33 | 49.01729 | 2.53803 | 362 ft | 14 kts | 47° |
| 2026-05-07 10:33 | 49.01769 | 2.53885 | 354 ft | 15 kts | 58° |
| 2026-05-07 10:34 | 49.01815 | 2.54091 | 354 ft | 16 kts | 64° |
| 2026-05-07 10:34 | 49.01896 | 2.54072 | 356 ft | 15 kts | 287° |
| 2026-05-07 10:34 | 49.01892 | 2.53963 | 354 ft | 16 kts | 264° |
| 2026-05-07 10:34 | 49.01879 | 2.53739 | 354 ft | 16 kts | 265° |
| 2026-05-07 10:35 | 49.01872 | 2.53625 | 359 ft | 17 kts | 265° |
| 2026-05-07 10:35 | 49.01861 | 2.53443 | 357 ft | 18 kts | 262° |
| 2026-05-07 10:35 | 49.01850 | 2.53254 | 355 ft | 18 kts | 266° |
| 2026-05-07 10:35 | 49.01838 | 2.52988 | 354 ft | 20 kts | 266° |
| 2026-05-07 10:36 | 49.01827 | 2.52777 | 360 ft | 12 kts | 265° |
| 2026-05-07 10:36 | 49.01822 | 2.52693 | 354 ft | 11 kts | 265° |
| 2026-05-07 10:36 | 49.01814 | 2.52562 | 362 ft | 13 kts | 264° |
| 2026-05-07 10:36 | 49.01817 | 2.52398 | 364 ft | 11 kts | 296° |
| 2026-05-07 10:37 | 49.01855 | 2.52356 | 355 ft | 10 kts | 343° |
| 2026-05-07 10:37 | 49.01926 | 2.52344 | 354 ft | 11 kts | 355° |
| 2026-05-07 10:37 | 49.02000 | 2.52335 | 360 ft | 11 kts | 355° |
| 2026-05-07 10:37 | 49.02075 | 2.52330 | 354 ft | 11 kts | 5° |
| 2026-05-07 10:38 | 49.02124 | 2.52409 | 356 ft | 10 kts | 80° |
| 2026-05-07 10:38 | 49.02130 | 2.52514 | 356 ft | 16 kts | 85° |
| 2026-05-07 10:38 | 49.02160 | 2.53073 | 356 ft | 88 kts | 85° |
| 2026-05-07 10:38 | 49.02226 | 2.54303 | 356 ft | 142 kts | 85° |
| 2026-05-07 10:39 | 49.02315 | 2.56011 | 491 ft | 172 kts | 84° |
| 2026-05-07 10:39 | 49.02404 | 2.57816 | 1158 ft | 171 kts | 85° |
| 2026-05-07 10:39 | 49.02493 | 2.59647 | 1816 ft | 176 kts | 84° |
| 2026-05-07 10:39 | 49.02593 | 2.61592 | 2225 ft | 193 kts | 85° |
| 2026-05-07 10:40 | 49.02699 | 2.63691 | 2628 ft | 212 kts | 84° |
| 2026-05-07 10:40 | 49.02825 | 2.66061 | 3032 ft | 236 kts | 84° |
| 2026-05-07 10:40 | 49.02969 | 2.68668 | 3560 ft | 255 kts | 85° |
| 2026-05-07 10:40 | 49.03119 | 2.71401 | 4387 ft | 261 kts | 84° |
| 2026-05-07 10:41 | 49.03627 | 2.74054 | 5232 ft | 266 kts | 57° |
| 2026-05-07 10:41 | 49.05034 | 2.75883 | 6055 ft | 272 kts | 22° |
| 2026-05-07 10:41 | 49.06903 | 2.76198 | 6870 ft | 277 kts | 348° |
| 2026-05-07 10:41 | 49.08705 | 2.75144 | 7710 ft | 279 kts | 330° |
| 2026-05-07 10:42 | 49.10369 | 2.73587 | 8597 ft | 282 kts | 325° |
| 2026-05-07 10:42 | 49.12015 | 2.71925 | 9439 ft | 285 kts | 326° |
| 2026-05-07 10:42 | 49.13712 | 2.70300 | 10225 ft | 289 kts | 328° |
| 2026-05-07 10:42 | 49.15509 | 2.68711 | 10572 ft | 310 kts | 330° |
| 2026-05-07 10:43 | 49.17454 | 2.67126 | 11016 ft | 328 kts | 332° |
| 2026-05-07 10:43 | 49.19529 | 2.65537 | 11728 ft | 335 kts | 333° |
| 2026-05-07 10:43 | 49.21638 | 2.63977 | 12489 ft | 338 kts | 333° |
| 2026-05-07 10:43 | 49.23660 | 2.62126 | 13201 ft | 340 kts | 324° |
| 2026-05-07 10:44 | 49.25609 | 2.60032 | 13917 ft | 343 kts | 323° |
| 2026-05-07 10:44 | 49.27572 | 2.57901 | 14560 ft | 346 kts | 323° |
| 2026-05-07 10:44 | 49.29541 | 2.55745 | 15215 ft | 350 kts | 323° |
| 2026-05-07 10:44 | 49.31529 | 2.53558 | 15900 ft | 354 kts | 323° |
| 2026-05-07 10:45 | 49.33538 | 2.51350 | 16528 ft | 357 kts | 323° |
| 2026-05-07 10:45 | 49.35565 | 2.49124 | 17156 ft | 360 kts | 323° |
| 2026-05-07 10:45 | 49.37588 | 2.46899 | 17765 ft | 363 kts | 323° |
| 2026-05-07 10:45 | 49.39653 | 2.44625 | 18381 ft | 367 kts | 323° |
| 2026-05-07 10:46 | 49.41734 | 2.42330 | 18920 ft | 370 kts | 323° |
| 2026-05-07 10:46 | 49.43830 | 2.40014 | 19445 ft | 373 kts | 323° |
| 2026-05-07 10:46 | 49.45945 | 2.37682 | 19970 ft | 375 kts | 323° |
| 2026-05-07 10:46 | 49.48078 | 2.35332 | 20504 ft | 378 kts | 323° |
| 2026-05-07 10:47 | 49.50221 | 2.32967 | 21072 ft | 381 kts | 323° |
| 2026-05-07 10:47 | 49.52385 | 2.30573 | 21616 ft | 384 kts | 323° |
| 2026-05-07 10:47 | 49.54565 | 2.28156 | 22152 ft | 387 kts | 323° |
| 2026-05-07 10:47 | 49.56761 | 2.25720 | 22666 ft | 390 kts | 323° |
| 2026-05-07 10:48 | 49.58969 | 2.23265 | 23183 ft | 393 kts | 323° |
| 2026-05-07 10:48 | 49.61160 | 2.20822 | 23684 ft | 396 kts | 323° |
| 2026-05-07 10:48 | 49.63404 | 2.18322 | 23992 ft | 398 kts | 323° |
| 2026-05-07 10:48 | 49.65639 | 2.15834 | 24067 ft | 391 kts | 323° |
| 2026-05-07 10:49 | 49.67813 | 2.13415 | 24077 ft | 382 kts | 323° |
| 2026-05-07 10:49 | 49.69964 | 2.11014 | 24077 ft | 380 kts | 322° |
| 2026-05-07 10:49 | 49.72105 | 2.08620 | 24077 ft | 380 kts | 323° |
| 2026-05-07 10:49 | 49.74244 | 2.06228 | 24077 ft | 380 kts | 322° |
| 2026-05-07 10:50 | 49.76381 | 2.03831 | 24075 ft | 380 kts | 322° |
| 2026-05-07 10:50 | 49.78523 | 2.01424 | 24074 ft | 380 kts | 322° |
| 2026-05-07 10:50 | 49.80658 | 1.99024 | 24073 ft | 380 kts | 322° |
| 2026-05-07 10:50 | 49.82796 | 1.96622 | 24070 ft | 380 kts | 322° |
| 2026-05-07 10:51 | 49.84936 | 1.94210 | 24068 ft | 380 kts | 322° |
| 2026-05-07 10:51 | 49.87071 | 1.91797 | 24071 ft | 380 kts | 322° |
| 2026-05-07 10:51 | 49.89172 | 1.89415 | 24071 ft | 380 kts | 322° |
| 2026-05-07 10:51 | 49.91293 | 1.86975 | 24071 ft | 379 kts | 321° |
| 2026-05-07 10:52 | 49.93381 | 1.84465 | 24071 ft | 379 kts | 320° |
| 2026-05-07 10:52 | 49.95440 | 1.81918 | 24071 ft | 379 kts | 320° |
| 2026-05-07 10:52 | 49.97494 | 1.79343 | 24076 ft | 379 kts | 319° |
| 2026-05-07 10:52 | 49.99549 | 1.76767 | 24078 ft | 380 kts | 319° |
| 2026-05-07 10:53 | 50.01607 | 1.74200 | 24080 ft | 379 kts | 320° |
| 2026-05-07 10:53 | 50.03664 | 1.71645 | 24078 ft | 379 kts | 320° |
| 2026-05-07 10:53 | 50.05726 | 1.69087 | 24076 ft | 379 kts | 320° |
| 2026-05-07 10:53 | 50.07780 | 1.66518 | 24072 ft | 379 kts | 319° |
| 2026-05-07 10:54 | 50.09799 | 1.63879 | 24075 ft | 378 kts | 317° |
| 2026-05-07 10:54 | 50.11785 | 1.61187 | 24078 ft | 378 kts | 317° |
| 2026-05-07 10:54 | 50.13754 | 1.58471 | 24073 ft | 378 kts | 317° |
| 2026-05-07 10:54 | 50.15722 | 1.55751 | 24075 ft | 378 kts | 317° |
| 2026-05-07 10:55 | 50.17698 | 1.53032 | 24070 ft | 378 kts | 317° |
| 2026-05-07 10:55 | 50.19677 | 1.50319 | 24079 ft | 378 kts | 317° |
| 2026-05-07 10:55 | 50.21634 | 1.47647 | 24073 ft | 378 kts | 317° |
| 2026-05-07 10:55 | 50.23615 | 1.44949 | 24083 ft | 378 kts | 317° |
| 2026-05-07 10:56 | 50.25600 | 1.42238 | 24079 ft | 378 kts | 317° |
| 2026-05-07 10:56 | 50.27570 | 1.39545 | 23876 ft | 372 kts | 317° |
| 2026-05-07 10:56 | 50.29493 | 1.36918 | 23653 ft | 362 kts | 317° |
| 2026-05-07 10:56 | 50.31373 | 1.34347 | 23374 ft | 355 kts | 317° |
| 2026-05-07 10:57 | 50.33215 | 1.31815 | 23101 ft | 351 kts | 317° |
| 2026-05-07 10:57 | 50.35044 | 1.29293 | 22823 ft | 349 kts | 317° |
| 2026-05-07 10:57 | 50.36863 | 1.26782 | 22551 ft | 348 kts | 317° |
| 2026-05-07 10:57 | 50.38674 | 1.24281 | 22278 ft | 346 kts | 317° |
| 2026-05-07 10:58 | 50.40481 | 1.21790 | 22012 ft | 345 kts | 317° |
| 2026-05-07 10:58 | 50.42280 | 1.19313 | 21753 ft | 344 kts | 317° |
| 2026-05-07 10:58 | 50.44074 | 1.16842 | 21489 ft | 343 kts | 317° |
| 2026-05-07 10:58 | 50.45841 | 1.14400 | 21232 ft | 342 kts | 317° |
| 2026-05-07 10:59 | 50.47623 | 1.11928 | 20972 ft | 341 kts | 317° |
| 2026-05-07 10:59 | 50.49388 | 1.09481 | 20675 ft | 335 kts | 317° |
| 2026-05-07 10:59 | 50.51129 | 1.07068 | 20272 ft | 333 kts | 316° |
| 2026-05-07 10:59 | 50.52744 | 1.04469 | 19860 ft | 331 kts | 311° |
| 2026-05-07 11:00 | 50.54310 | 1.01828 | 19458 ft | 330 kts | 311° |
| 2026-05-07 11:00 | 50.55874 | 0.99193 | 19056 ft | 329 kts | 311° |
| 2026-05-07 11:00 | 50.57441 | 0.96553 | 18654 ft | 329 kts | 311° |
| 2026-05-07 11:00 | 50.59001 | 0.93926 | 18237 ft | 328 kts | 311° |
| 2026-05-07 11:01 | 50.60561 | 0.91297 | 17821 ft | 327 kts | 311° |
| 2026-05-07 11:01 | 50.62104 | 0.88687 | 17405 ft | 325 kts | 311° |
| 2026-05-07 11:01 | 50.63643 | 0.86081 | 17016 ft | 324 kts | 311° |
| 2026-05-07 11:01 | 50.65174 | 0.83487 | 16637 ft | 323 kts | 311° |
| 2026-05-07 11:02 | 50.66697 | 0.80902 | 16260 ft | 321 kts | 311° |
| 2026-05-07 11:02 | 50.68193 | 0.78293 | 15919 ft | 319 kts | 309° |
| 2026-05-07 11:02 | 50.69613 | 0.75613 | 15472 ft | 320 kts | 308° |
| 2026-05-07 11:02 | 50.70997 | 0.72889 | 15206 ft | 314 kts | 307° |
| 2026-05-07 11:03 | 50.72343 | 0.70201 | 14657 ft | 313 kts | 307° |
| 2026-05-07 11:03 | 50.73691 | 0.67503 | 14346 ft | 311 kts | 307° |
| 2026-05-07 11:03 | 50.75033 | 0.64831 | 14032 ft | 309 kts | 308° |
| 2026-05-07 11:03 | 50.76372 | 0.62179 | 13679 ft | 308 kts | 308° |
| 2026-05-07 11:04 | 50.77699 | 0.59556 | 13134 ft | 304 kts | 308° |
| 2026-05-07 11:04 | 50.78998 | 0.56986 | 12545 ft | 300 kts | 308° |
| 2026-05-07 11:04 | 50.80289 | 0.54435 | 11984 ft | 295 kts | 308° |
| 2026-05-07 11:04 | 50.81564 | 0.51916 | 11411 ft | 292 kts | 308° |
| 2026-05-07 11:05 | 50.82829 | 0.49418 | 10788 ft | 290 kts | 308° |
| 2026-05-07 11:05 | 50.84089 | 0.46932 | 10278 ft | 289 kts | 308° |
| 2026-05-07 11:05 | 50.85346 | 0.44445 | 9815 ft | 289 kts | 308° |
| 2026-05-07 11:05 | 50.86602 | 0.41963 | 9347 ft | 289 kts | 308° |
| 2026-05-07 11:06 | 50.87858 | 0.39479 | 8904 ft | 289 kts | 308° |
| 2026-05-07 11:06 | 50.89110 | 0.37001 | 8610 ft | 284 kts | 308° |
| 2026-05-07 11:06 | 50.90352 | 0.34542 | 8152 ft | 285 kts | 308° |
| 2026-05-07 11:06 | 50.91573 | 0.32122 | 7891 ft | 278 kts | 308° |
| 2026-05-07 11:07 | 50.92776 | 0.29739 | 7536 ft | 276 kts | 308° |
| 2026-05-07 11:07 | 50.93966 | 0.27373 | 7147 ft | 275 kts | 308° |
| 2026-05-07 11:07 | 50.95160 | 0.24989 | 6705 ft | 276 kts | 307° |
| 2026-05-07 11:07 | 50.96339 | 0.22602 | 6304 ft | 273 kts | 307° |
| 2026-05-07 11:08 | 50.97498 | 0.20243 | 5628 ft | 270 kts | 307° |
| 2026-05-07 11:08 | 50.98633 | 0.17932 | 5036 ft | 266 kts | 307° |
| 2026-05-07 11:08 | 50.99763 | 0.15632 | 4594 ft | 263 kts | 307° |
| 2026-05-07 11:08 | 51.00860 | 0.13314 | 4193 ft | 262 kts | 301° |
| 2026-05-07 11:09 | 51.01600 | 0.10690 | 3932 ft | 259 kts | 285° |
| 2026-05-07 11:09 | 51.01883 | 0.07861 | 3938 ft | 260 kts | 273° |
| 2026-05-07 11:09 | 51.02009 | 0.04997 | 3825 ft | 259 kts | 273° |
| 2026-05-07 11:09 | 51.02134 | 0.02137 | 3765 ft | 259 kts | 274° |
| 2026-05-07 11:10 | 51.02257 | -0.00727 | 3745 ft | 259 kts | 274° |
| 2026-05-07 11:10 | 51.02381 | -0.03576 | 3685 ft | 258 kts | 274° |
| 2026-05-07 11:10 | 51.02503 | -0.06409 | 3626 ft | 257 kts | 274° |
| 2026-05-07 11:10 | 51.02624 | -0.09236 | 3564 ft | 256 kts | 274° |
| 2026-05-07 11:11 | 51.02743 | -0.12067 | 3507 ft | 257 kts | 274° |
| 2026-05-07 11:11 | 51.02859 | -0.14852 | 3447 ft | 256 kts | 274° |
| 2026-05-07 11:11 | 51.02978 | -0.17682 | 3388 ft | 256 kts | 274° |
| 2026-05-07 11:11 | 51.03093 | -0.20496 | 3327 ft | 255 kts | 274° |
| 2026-05-07 11:12 | 51.03207 | -0.23312 | 3269 ft | 256 kts | 274° |
| 2026-05-07 11:12 | 51.03320 | -0.26137 | 3207 ft | 256 kts | 274° |
| 2026-05-07 11:12 | 51.03433 | -0.28960 | 3095 ft | 254 kts | 274° |
| 2026-05-07 11:12 | 51.03545 | -0.31688 | 3000 ft | 240 kts | 274° |
| 2026-05-07 11:13 | 51.03651 | -0.34256 | 3005 ft | 228 kts | 274° |
| 2026-05-07 11:13 | 51.03751 | -0.36759 | 3006 ft | 227 kts | 273° |
| 2026-05-07 11:13 | 51.03848 | -0.39252 | 3006 ft | 226 kts | 273° |
| 2026-05-07 11:13 | 51.03945 | -0.41739 | 3007 ft | 225 kts | 273° |
| 2026-05-07 11:14 | 51.04041 | -0.44227 | 3006 ft | 225 kts | 273° |
| 2026-05-07 11:14 | 51.04139 | -0.46675 | 3004 ft | 216 kts | 273° |
| 2026-05-07 11:14 | 51.04233 | -0.49016 | 3002 ft | 209 kts | 273° |
| 2026-05-07 11:14 | 51.04327 | -0.51297 | 3003 ft | 206 kts | 274° |
| 2026-05-07 11:15 | 51.04730 | -0.53447 | 3002 ft | 205 kts | 305° |
| 2026-05-07 11:15 | 51.05768 | -0.54791 | 3020 ft | 193 kts | 335° |
| 2026-05-07 11:15 | 51.07054 | -0.55273 | 3008 ft | 190 kts | 358° |
| 2026-05-07 11:15 | 51.08337 | -0.54918 | 3000 ft | 188 kts | 22° |
| 2026-05-07 11:16 | 51.09434 | -0.53785 | 3003 ft | 189 kts | 45° |
| 2026-05-07 11:16 | 51.10158 | -0.52056 | 3006 ft | 189 kts | 69° |
| 2026-05-07 11:16 | 51.10484 | -0.50029 | 3007 ft | 190 kts | 77° |
| 2026-05-07 11:16 | 51.10772 | -0.47985 | 3006 ft | 189 kts | 77° |
| 2026-05-07 11:17 | 51.11059 | -0.45946 | 3006 ft | 189 kts | 77° |
| 2026-05-07 11:17 | 51.11347 | -0.43900 | 3012 ft | 190 kts | 77° |
| 2026-05-07 11:17 | 51.11634 | -0.41855 | 2883 ft | 189 kts | 77° |
| 2026-05-07 11:17 | 51.11920 | -0.39817 | 2662 ft | 188 kts | 78° |
| 2026-05-07 11:18 | 51.12204 | -0.37789 | 2420 ft | 186 kts | 78° |
| 2026-05-07 11:18 | 51.12472 | -0.35875 | 2175 ft | 173 kts | 78° |
| 2026-05-07 11:18 | 51.12725 | -0.34070 | 1959 ft | 159 kts | 78° |
| 2026-05-07 11:18 | 51.12956 | -0.32412 | 1743 ft | 149 kts | 78° |
| 2026-05-07 11:19 | 51.13177 | -0.30825 | 1539 ft | 145 kts | 78° |
| 2026-05-07 11:19 | 51.13394 | -0.29266 | 1341 ft | 144 kts | 78° |
| 2026-05-07 11:19 | 51.13610 | -0.27715 | 1141 ft | 143 kts | 78° |
| 2026-05-07 11:19 | 51.13823 | -0.26182 | 949 ft | 141 kts | 78° |
| 2026-05-07 11:20 | 51.14034 | -0.24664 | 757 ft | 140 kts | 78° |
| 2026-05-07 11:20 | 51.14246 | -0.23158 | 546 ft | 139 kts | 77° |
| 2026-05-07 11:20 | 51.14453 | -0.21665 | 374 ft | 138 kts | 78° |
| 2026-05-07 11:20 | 51.14659 | -0.20188 | 215 ft | 134 kts | 76° |
| 2026-05-07 11:21 | 51.14830 | -0.18956 | 212 ft | 92 kts | 76° |
| 2026-05-07 11:21 | 51.14926 | -0.18255 | 207 ft | 32 kts | 77° |
| 2026-05-07 11:21 | 51.14989 | -0.17947 | 211 ft | 14 kts | 60° |
| 2026-05-07 11:21 | 51.15045 | -0.17820 | 212 ft | 15 kts | 53° |
| 2026-05-07 11:22 | 51.15104 | -0.17755 | 208 ft | 0 kts | 359° |
| 2026-05-07 11:22 | 51.15112 | -0.17757 | 207 ft | 4 kts | 353° |
| 2026-05-07 11:22 | 51.15145 | -0.17763 | 205 ft | 5 kts | 354° |
| 2026-05-07 11:23 | 51.15183 | -0.17769 | 210 ft | 6 kts | 354° |
| 2026-05-07 11:23 | 51.15221 | -0.17773 | 208 ft | 6 kts | 4° |
| 2026-05-07 11:23 | 51.15256 | -0.17740 | 213 ft | 6 kts | 48° |
| 2026-05-07 11:23 | 51.15267 | -0.17686 | 206 ft | 5 kts | 76° |
| 2026-05-07 11:24 | 51.15279 | -0.17610 | 204 ft | 12 kts | 77° |
| 2026-05-07 11:24 | 51.15297 | -0.17468 | 204 ft | 12 kts | 80° |
| 2026-05-07 11:24 | 51.15318 | -0.17385 | 216 ft | 13 kts | 47° |
| 2026-05-07 11:24 | 51.15377 | -0.17239 | 215 ft | 9 kts | 72° |
| 2026-05-07 11:25 | 51.15391 | -0.17175 | 215 ft | 10 kts | 65° |
| 2026-05-07 11:25 | 51.15417 | -0.17083 | 207 ft | 7 kts | 46° |
| 2026-05-07 11:25 | 51.15466 | -0.17084 | 215 ft | 0 kts | 347° |